Time;durP1;ratioP1;P1;durP2;ratioP2;P2;SDS_P1;SDS_P2;PMS_P1;PMS_P2;Temp;Humidity;BMP_temperature;BMP_pressure;BME280_temperature;BME280_humidity;BME280_pressure;Samples;Min_cycle;Max_cycle;Signal;HPM_P1;HPM_P2
2021/09/26 00:00:58;;;;;;;9.02;7.05;;;16.20;95.10;;;;;;5073614;28;20107;-72
2021/09/26 00:03:24;;;;;;;10.82;6.40;;;16.10;95.20;;;;;;5064415;28;20489;-73
2021/09/26 00:05:49;;;;;;;9.93;6.68;;;16.20;95.30;;;;;;5035562;28;20120;-73
2021/09/26 00:08:15;;;;;;;8.60;6.53;;;16.20;95.30;;;;;;5053455;28;20426;-74
2021/09/26 00:10:41;;;;;;;9.32;6.63;;;16.10;95.30;;;;;;5053051;28;20061;-73
2021/09/26 00:13:06;;;;;;;8.15;6.30;;;16.10;95.70;;;;;;5035966;28;20029;-72
2021/09/26 00:15:33;;;;;;;9.88;6.40;;;16.10;95.50;;;;;;5035735;28;20032;-72
2021/09/26 00:17:59;;;;;;;8.27;6.80;;;16.10;95.60;;;;;;5053158;28;20025;-72
2021/09/26 00:20:25;;;;;;;8.80;6.10;;;16.10;95.70;;;;;;5035274;28;20029;-73
2021/09/26 00:22:51;;;;;;;8.65;6.50;;;16.10;95.70;;;;;;5053090;28;20032;-72
2021/09/26 00:25:19;;;;;;;10.63;5.85;;;16.10;95.70;;;;;;5035404;28;20411;-72
2021/09/26 00:27:45;;;;;;;9.85;6.57;;;16.10;95.70;;;;;;5035580;28;20021;-73
2021/09/26 00:30:14;;;;;;;8.27;6.95;;;16.20;95.80;;;;;;5059219;28;20029;-73
2021/09/26 00:32:41;;;;;;;12.43;6.75;;;16.10;95.80;;;;;;5046884;28;20036;-72
2021/09/26 00:35:07;;;;;;;7.35;5.88;;;16.10;95.80;;;;;;5054440;28;20108;-72
2021/09/26 00:37:33;;;;;;;8.80;6.95;;;16.20;95.90;;;;;;5045796;28;20063;-73
2021/09/26 00:39:59;;;;;;;9.23;6.75;;;16.20;96.00;;;;;;5059007;28;20024;-73
2021/09/26 00:42:24;;;;;;;8.45;6.35;;;16.20;96.10;;;;;;5064479;28;20033;-73
2021/09/26 00:44:50;;;;;;;8.27;6.28;;;16.20;96.20;;;;;;5038772;28;20021;-72
2021/09/26 00:47:16;;;;;;;12.45;7.35;;;16.10;96.20;;;;;;5056880;28;20032;-73
2021/09/26 00:49:41;;;;;;;11.07;7.05;;;16.10;96.40;;;;;;5038881;28;20493;-72
2021/09/26 00:52:08;;;;;;;8.50;6.60;;;16.10;96.60;;;;;;5056675;28;20025;-73
2021/09/26 00:54:36;;;;;;;10.20;7.25;;;16.10;96.70;;;;;;5065868;28;20100;-72
2021/09/26 00:57:02;;;;;;;10.85;7.80;;;16.10;96.90;;;;;;5076871;28;20124;-72
2021/09/26 00:59:28;;;;;;;9.23;6.90;;;16.00;97.00;;;;;;5058759;28;20024;-73
2021/09/26 01:01:53;;;;;;;10.13;7.00;;;16.00;97.20;;;;;;5076438;28;20573;-73
2021/09/26 01:04:20;;;;;;;8.95;7.15;;;16.00;97.30;;;;;;5071342;28;20035;-74
2021/09/26 01:06:51;;;;;;;9.07;6.75;;;16.00;97.40;;;;;;5056475;28;20049;-74
2021/09/26 01:09:59;;;;;;;9.05;7.03;;;16.00;97.50;;;;;;5063921;28;20031;-74
2021/09/26 01:12:49;;;;;;;9.57;6.95;;;16.00;97.50;;;;;;5059615;28;20039;-72
2021/09/26 01:15:42;;;;;;;11.60;7.70;;;16.00;97.50;;;;;;5040922;28;20475;-76
2021/09/26 01:18:22;;;;;;;8.95;7.00;;;16.00;97.80;;;;;;5058183;28;20111;-75
2021/09/26 01:21:02;;;;;;;11.13;7.57;;;15.90;97.80;;;;;;5044059;28;20029;-74
2021/09/26 01:24:05;;;;;;;10.15;7.43;;;15.90;97.80;;;;;;5038282;28;20024;-75
2021/09/26 01:26:33;;;;;;;8.27;6.90;;;15.90;97.80;;;;;;5038272;28;20025;-73
2021/09/26 01:29:14;;;;;;;10.50;7.57;;;15.90;98.00;;;;;;5055969;28;20459;-72
2021/09/26 01:31:42;;;;;;;10.57;7.55;;;15.90;98.00;;;;;;5059151;28;20021;-73
2021/09/26 01:34:24;;;;;;;9.93;7.32;;;15.90;98.00;;;;;;5075770;28;20032;-73
2021/09/26 01:36:53;;;;;;;9.80;7.20;;;15.90;98.00;;;;;;5058231;28;20032;-72
2021/09/26 01:39:44;;;;;;;8.93;6.85;;;15.90;98.10;;;;;;5058077;28;20029;-74
2021/09/26 01:42:20;;;;;;;9.07;7.18;;;15.90;98.00;;;;;;5056548;28;20524;-73
2021/09/26 01:45:01;;;;;;;9.48;7.82;;;15.90;98.10;;;;;;5075798;28;20117;-72
2021/09/26 01:47:48;;;;;;;10.15;7.55;;;15.80;98.20;;;;;;5076046;28;20082;-73
2021/09/26 01:50:15;;;;;;;10.43;7.70;;;15.80;98.20;;;;;;5075509;28;20100;-74
2021/09/26 01:52:45;;;;;;;9.55;7.63;;;15.80;98.20;;;;;;5056391;28;20495;-74
2021/09/26 01:55:12;;;;;;;9.77;7.40;;;15.80;98.30;;;;;;5058240;28;20123;-75
2021/09/26 01:57:42;;;;;;;9.13;6.90;;;15.80;98.40;;;;;;5057314;28;20039;-73
2021/09/26 02:00:10;;;;;;;10.98;6.88;;;15.80;98.30;;;;;;5075389;28;20039;-72
2021/09/26 02:02:36;;;;;;;8.70;6.97;;;15.80;98.60;;;;;;5045566;28;20036;-72
2021/09/26 02:05:05;;;;;;;10.45;6.60;;;15.80;98.30;;;;;;5037190;28;20110;-72
2021/09/26 02:07:34;;;;;;;9.63;6.30;;;15.80;98.20;;;;;;5037258;28;20087;-73
2021/09/26 02:10:00;;;;;;;8.23;5.82;;;15.80;98.20;;;;;;5080884;28;20042;-74
2021/09/26 02:12:31;;;;;;;8.73;6.05;;;15.80;98.20;;;;;;5095272;28;20029;-73
2021/09/26 02:14:58;;;;;;;7.72;6.00;;;15.80;98.20;;;;;;5095096;28;20103;-73
2021/09/26 02:17:27;;;;;;;8.52;6.05;;;15.80;98.30;;;;;;5076496;28;20035;-74
2021/09/26 02:20:00;;;;;;;8.50;6.25;;;15.80;98.20;;;;;;5067828;28;20031;-73
2021/09/26 02:22:27;;;;;;;8.57;6.25;;;15.80;98.30;;;;;;5075153;28;20025;-73
2021/09/26 02:24:53;;;;;;;10.57;6.35;;;15.70;98.20;;;;;;5074861;28;20024;-72
2021/09/26 02:27:19;;;;;;;10.27;6.70;;;15.80;98.30;;;;;;5074835;28;20028;-74
2021/09/26 02:29:44;;;;;;;9.80;6.00;;;15.80;98.20;;;;;;5051083;28;20041;-73
2021/09/26 02:32:10;;;;;;;8.40;5.80;;;15.80;98.20;;;;;;5053292;28;20083;-74
2021/09/26 02:34:36;;;;;;;9.27;5.30;;;15.80;98.20;;;;;;5054838;28;20447;-72
2021/09/26 02:37:02;;;;;;;8.60;5.80;;;15.70;98.10;;;;;;5054537;28;20057;-72
2021/09/26 02:39:27;;;;;;;7.70;5.72;;;15.70;98.20;;;;;;5053423;28;20033;-73
2021/09/26 02:42:02;;;;;;;6.88;5.65;;;15.70;98.20;;;;;;5036585;28;20029;-73
2021/09/26 02:44:46;;;;;;;10.20;5.40;;;15.70;98.30;;;;;;5054249;28;20025;-73
2021/09/26 02:47:18;;;;;;;8.77;5.68;;;15.70;98.30;;;;;;5036597;28;20029;-73
2021/09/26 02:49:46;;;;;;;9.68;5.40;;;15.70;98.50;;;;;;5036921;28;20119;-73
2021/09/26 02:52:12;;;;;;;7.45;5.45;;;15.70;98.50;;;;;;5053087;28;20116;-73
2021/09/26 02:54:41;;;;;;;7.45;4.93;;;15.70;98.60;;;;;;5054219;28;20051;-73
2021/09/26 02:57:08;;;;;;;7.25;5.65;;;15.70;98.70;;;;;;5052890;28;20033;-74
2021/09/26 02:59:36;;;;;;;6.75;5.72;;;15.70;98.70;;;;;;5053811;28;20029;-73
2021/09/26 03:02:02;;;;;;;10.27;5.63;;;15.60;98.70;;;;;;5054451;28;20025;-72
2021/09/26 03:04:28;;;;;;;8.75;5.30;;;15.60;98.70;;;;;;5052937;28;20025;-73
2021/09/26 03:06:54;;;;;;;8.38;5.60;;;15.60;98.90;;;;;;5036381;28;20410;-73
2021/09/26 03:09:20;;;;;;;8.55;6.10;;;15.60;98.80;;;;;;5054305;28;20036;-73
2021/09/26 03:11:47;;;;;;;8.00;5.43;;;15.60;99.00;;;;;;5056531;28;20061;-73
2021/09/26 03:14:13;;;;;;;9.15;5.43;;;15.50;98.60;;;;;;5062987;28;20028;-75
2021/09/26 03:16:39;;;;;;;7.45;5.47;;;15.50;98.60;;;;;;5056412;28;20470;-77
2021/09/26 03:19:05;;;;;;;7.25;5.40;;;15.50;98.80;;;;;;5055947;28;20475;-73
2021/09/26 03:21:31;;;;;;;8.90;5.55;;;15.40;99.00;;;;;;5073949;28;20028;-74
2021/09/26 03:23:58;;;;;;;7.57;5.70;;;15.40;99.30;;;;;;5074099;28;20413;-73
2021/09/26 03:26:24;;;;;;;8.50;5.65;;;15.30;99.50;;;;;;5073868;28;20037;-74
2021/09/26 03:28:50;;;;;;;7.38;5.57;;;15.30;99.70;;;;;;5075072;28;20036;-74
2021/09/26 03:31:17;;;;;;;7.63;5.90;;;15.20;99.90;;;;;;5084879;28;20051;-74
2021/09/26 03:33:43;;;;;;;8.32;5.93;;;15.20;99.90;;;;;;5073717;28;20035;-73
2021/09/26 03:36:09;;;;;;;8.05;5.65;;;15.20;99.90;;;;;;5073851;28;20103;-73
2021/09/26 03:38:35;;;;;;;8.90;5.82;;;15.20;99.90;;;;;;5045268;28;20116;-74
2021/09/26 03:41:01;;;;;;;7.80;5.40;;;15.10;99.90;;;;;;5054704;28;20064;-73
2021/09/26 03:43:26;;;;;;;7.55;5.88;;;15.10;99.90;;;;;;5056301;28;20032;-73
2021/09/26 03:45:52;;;;;;;8.52;6.05;;;15.10;99.90;;;;;;5066489;28;20043;-73
2021/09/26 03:48:20;;;;;;;7.95;5.88;;;15.10;99.90;;;;;;5053961;28;20078;-75
2021/09/26 03:50:47;;;;;;;7.53;5.88;;;15.00;99.90;;;;;;5046371;28;20087;-73
2021/09/26 03:53:12;;;;;;;8.13;6.03;;;15.00;99.90;;;;;;5035478;28;20051;-74
2021/09/26 03:55:38;;;;;;;8.00;6.07;;;15.00;99.90;;;;;;5065137;28;20028;-75
2021/09/26 03:58:04;;;;;;;8.50;6.28;;;15.00;99.90;;;;;;5073860;28;20056;-73
2021/09/26 04:00:30;;;;;;;7.28;5.82;;;15.00;99.90;;;;;;5073462;28;20047;-73
2021/09/26 04:02:56;;;;;;;10.32;5.90;;;15.00;99.90;;;;;;5053835;28;20041;-75
2021/09/26 04:05:21;;;;;;;9.32;5.57;;;15.00;99.90;;;;;;5073538;28;20032;-73
2021/09/26 04:07:47;;;;;;;8.75;5.47;;;15.00;99.90;;;;;;5065388;28;20061;-75
2021/09/26 04:10:13;;;;;;;7.75;5.40;;;15.10;99.90;;;;;;5049350;28;20114;-73
2021/09/26 04:12:40;;;;;;;6.60;5.00;;;15.20;99.90;;;;;;5079875;28;20032;-72
2021/09/26 04:15:08;;;;;;;7.22;5.13;;;15.30;99.90;;;;;;5079410;28;20020;-73
2021/09/26 04:17:34;;;;;;;7.13;5.53;;;15.60;99.90;;;;;;5069453;28;20036;-75
2021/09/26 04:20:00;;;;;;;8.85;5.28;;;15.80;99.90;;;;;;5039282;28;20060;-73
2021/09/26 04:22:26;;;;;;;7.55;5.30;;;16.00;99.10;;;;;;5057407;28;20509;-73
2021/09/26 04:24:52;;;;;;;9.77;4.57;;;16.10;97.80;;;;;;5056884;28;20032;-71
2021/09/26 04:27:18;;;;;;;6.55;4.78;;;16.10;97.00;;;;;;5057166;28;20390;-73
2021/09/26 04:29:43;;;;;;;7.88;5.18;;;16.10;96.70;;;;;;5057164;28;20383;-71
2021/09/26 04:32:09;;;;;;;8.60;4.90;;;16.10;96.50;;;;;;5043455;28;20029;-73
2021/09/26 04:34:35;;;;;;;7.95;5.40;;;16.10;96.30;;;;;;5071389;28;20625;-72
2021/09/26 04:37:03;;;;;;;9.93;5.95;;;16.10;96.10;;;;;;5097066;28;20428;-72
2021/09/26 04:39:29;;;;;;;8.05;4.88;;;16.20;97.70;;;;;;5097084;28;20078;-72
2021/09/26 04:41:54;;;;;;;7.82;4.78;;;16.60;98.70;;;;;;5078886;28;20465;-73
2021/09/26 04:44:20;;;;;;;7.70;4.32;;;17.20;97.60;;;;;;5085062;28;20059;-72
2021/09/26 04:46:46;;;;;;;7.97;4.63;;;17.70;95.20;;;;;;5058899;28;20036;-74
2021/09/26 04:49:12;;;;;;;7.35;4.40;;;18.00;93.30;;;;;;5076113;28;20029;-74
2021/09/26 04:51:37;;;;;;;6.60;4.88;;;18.20;91.70;;;;;;5063884;28;20124;-75
2021/09/26 04:54:03;;;;;;;7.60;4.82;;;18.30;90.00;;;;;;5055278;28;20115;-74
2021/09/26 04:56:29;;;;;;;6.57;4.47;;;18.10;88.60;;;;;;5076014;28;20059;-71
2021/09/26 04:58:57;;;;;;;6.78;4.15;;;18.30;90.30;;;;;;5076383;28;20455;-74
2021/09/26 05:01:23;;;;;;;5.93;4.07;;;18.70;89.90;;;;;;5081232;28;20032;-76
2021/09/26 05:03:48;;;;;;;7.35;4.68;;;19.30;87.60;;;;;;5078557;28;20583;-73
2021/09/26 05:06:15;;;;;;;6.47;4.13;;;19.90;84.90;;;;;;5095523;28;20052;-75
2021/09/26 05:08:41;;;;;;;7.97;4.32;;;20.40;82.30;;;;;;5078393;28;20401;-72
2021/09/26 05:11:09;;;;;;;7.68;4.18;;;20.60;79.00;;;;;;5078332;28;20496;-74
2021/09/26 05:13:38;;;;;;;6.57;4.35;;;20.50;77.70;;;;;;5078161;28;20057;-74
2021/09/26 05:16:06;;;;;;;7.40;3.50;;;20.70;78.10;;;;;;5078289;28;20465;-74
2021/09/26 05:18:32;;;;;;;5.55;3.92;;;21.20;77.30;;;;;;5077587;28;20028;-75
2021/09/26 05:20:58;;;;;;;10.07;3.75;;;21.80;75.90;;;;;;5096634;28;20533;-72
2021/09/26 05:23:23;;;;;;;6.28;3.63;;;22.30;73.90;;;;;;5078227;28;20024;-74
2021/09/26 05:25:49;;;;;;;7.85;3.70;;;22.40;71.80;;;;;;5087660;28;20375;-73
2021/09/26 05:28:15;;;;;;;7.93;3.78;;;22.50;70.70;;;;;;5058163;28;20359;-75
2021/09/26 05:30:42;;;;;;;7.43;3.60;;;22.40;69.50;;;;;;5070457;28;20043;-74
2021/09/26 05:33:08;;;;;;;7.40;4.70;;;22.00;69.40;;;;;;5055804;28;20029;-74
2021/09/26 05:35:35;;;;;;;6.25;3.70;;;21.90;70.20;;;;;;5037632;28;20521;-76
2021/09/26 05:38:00;;;;;;;7.80;3.90;;;21.70;70.00;;;;;;5038595;28;20025;-73
2021/09/26 05:40:26;;;;;;;7.63;4.10;;;21.40;70.10;;;;;;5055820;28;20426;-71
2021/09/26 05:42:52;;;;;;;5.22;3.67;;;21.10;70.80;;;;;;5056072;28;20033;-74
2021/09/26 05:45:20;;;;;;;10.48;5.47;;;20.90;71.20;;;;;;5056607;28;20070;-74
2021/09/26 05:47:46;;;;;;;7.68;4.90;;;20.80;71.70;;;;;;5038162;28;20372;-73
2021/09/26 05:50:12;;;;;;;5.07;3.92;;;20.70;71.60;;;;;;5037647;28;20120;-73
2021/09/26 05:52:37;;;;;;;7.90;4.20;;;20.80;72.80;;;;;;5037988;28;20032;-76
2021/09/26 05:55:04;;;;;;;6.80;4.28;;;21.10;71.90;;;;;;5045878;28;20056;-73
2021/09/26 05:57:30;;;;;;;5.65;3.97;;;21.50;71.40;;;;;;5041501;28;20029;-77
2021/09/26 05:59:56;;;;;;;6.78;4.18;;;22.10;70.00;;;;;;5037468;28;20040;-73
2021/09/26 06:02:26;;;;;;;6.47;4.10;;;22.40;68.70;;;;;;5037619;28;20021;-73
2021/09/26 06:04:57;;;;;;;7.60;4.10;;;22.80;67.90;;;;;;5046250;28;20032;-84
2021/09/26 06:07:23;;;;;;;8.25;4.47;;;23.10;67.10;;;;;;5091854;28;20040;-72
2021/09/26 06:09:49;;;;;;;7.82;4.70;;;23.70;66.10;;;;;;5056890;28;20169;-73
2021/09/26 06:12:14;;;;;;;7.22;4.63;;;23.80;64.10;;;;;;5053317;28;20033;-73
2021/09/26 06:14:41;;;;;;;6.82;4.68;;;23.70;63.60;;;;;;5054060;28;20028;-73
2021/09/26 06:17:07;;;;;;;8.68;4.93;;;23.90;64.10;;;;;;5037373;28;20028;-72
2021/09/26 06:19:33;;;;;;;7.15;4.50;;;24.50;63.00;;;;;;5052537;28;20458;-75
2021/09/26 06:21:59;;;;;;;7.85;4.63;;;25.10;61.30;;;;;;5057391;28;20033;-74
2021/09/26 06:24:26;;;;;;;7.20;4.10;;;25.40;59.50;;;;;;5074901;28;20021;-73
2021/09/26 06:26:52;;;;;;;6.68;4.43;;;25.30;58.70;;;;;;5060855;28;20055;-73
2021/09/26 06:29:18;;;;;;;8.75;4.50;;;25.00;57.90;;;;;;5069573;28;20051;-75
2021/09/26 06:31:47;;;;;;;7.47;4.35;;;24.70;59.00;;;;;;5094719;28;20024;-74
2021/09/26 06:34:14;;;;;;;8.18;4.28;;;24.80;58.50;;;;;;5074720;28;20031;-73
2021/09/26 06:36:42;;;;;;;7.68;4.07;;;24.30;58.30;;;;;;5056866;28;20120;-75
2021/09/26 06:39:08;;;;;;;7.50;4.25;;;24.40;58.90;;;;;;5069260;28;20024;-73
2021/09/26 06:41:34;;;;;;;7.53;4.15;;;24.40;58.70;;;;;;5076172;28;20042;-73
2021/09/26 06:44:01;;;;;;;8.35;4.20;;;24.40;58.30;;;;;;5077452;28;20021;-71
2021/09/26 06:46:28;;;;;;;6.90;3.90;;;24.10;58.10;;;;;;5054747;28;20167;-72
2021/09/26 06:48:53;;;;;;;6.80;4.03;;;23.80;57.90;;;;;;5073366;28;20032;-73
2021/09/26 06:51:19;;;;;;;7.28;4.45;;;23.50;57.90;;;;;;5074028;28;20024;-73
2021/09/26 06:53:45;;;;;;;8.52;4.07;;;23.00;58.50;;;;;;5041938;28;20040;-75
2021/09/26 06:56:11;;;;;;;7.53;3.83;;;23.00;60.20;;;;;;5090302;28;20024;-74
2021/09/26 06:58:37;;;;;;;7.45;3.53;;;23.60;60.30;;;;;;5076265;28;20020;-74
2021/09/26 07:01:03;;;;;;;8.45;3.80;;;23.70;58.40;;;;;;5089065;28;20093;-72
2021/09/26 07:03:29;;;;;;;8.50;3.65;;;23.70;58.10;;;;;;5075977;28;20036;-73
2021/09/26 07:05:55;;;;;;;8.23;3.80;;;23.40;57.80;;;;;;5061764;28;20147;-74
2021/09/26 07:08:21;;;;;;;8.27;3.40;;;23.00;57.80;;;;;;5046435;28;20487;-72
2021/09/26 07:10:46;;;;;;;5.32;3.40;;;22.50;58.30;;;;;;5060098;28;20471;-73
2021/09/26 07:13:12;;;;;;;6.80;3.78;;;22.00;59.10;;;;;;5065541;28;20047;-73
2021/09/26 07:15:38;;;;;;;8.95;3.90;;;21.60;59.90;;;;;;5061430;28;20104;-74
2021/09/26 07:18:03;;;;;;;9.50;3.88;;;21.20;61.00;;;;;;5050041;28;20032;-74
2021/09/26 07:20:29;;;;;;;9.73;3.60;;;20.90;62.20;;;;;;5068669;28;20025;-74
2021/09/26 07:22:57;;;;;;;8.98;3.90;;;20.60;62.00;;;;;;5069886;28;20032;-75
2021/09/26 07:25:22;;;;;;;8.80;3.95;;;20.30;62.40;;;;;;5039203;28;20029;-73
2021/09/26 07:27:48;;;;;;;8.73;3.70;;;20.10;62.80;;;;;;5071930;28;20037;-74
2021/09/26 07:30:17;;;;;;;7.75;3.80;;;19.90;63.50;;;;;;5062369;28;20112;-70
2021/09/26 07:32:43;;;;;;;8.77;3.95;;;19.80;63.70;;;;;;5052836;28;20090;-73
2021/09/26 07:35:09;;;;;;;8.32;3.80;;;19.80;64.00;;;;;;5058509;28;20057;-73
2021/09/26 07:37:35;;;;;;;8.18;3.30;;;19.70;64.40;;;;;;5053281;28;20028;-73
2021/09/26 07:40:01;;;;;;;10.15;3.40;;;19.90;65.40;;;;;;5058086;28;20024;-73
2021/09/26 07:42:27;;;;;;;8.43;3.00;;;20.70;65.30;;;;;;5051521;28;20028;-73
2021/09/26 07:44:53;;;;;;;9.25;3.28;;;21.70;63.10;;;;;;5059762;28;20028;-73
2021/09/26 07:47:18;;;;;;;8.20;3.03;;;22.00;60.90;;;;;;5068413;28;20029;-73
2021/09/26 07:49:44;;;;;;;5.82;2.50;;;22.20;60.60;;;;;;5073472;28;20020;-73
2021/09/26 07:52:13;;;;;;;6.00;2.67;;;23.00;59.80;;;;;;5069739;28;20064;-74
2021/09/26 07:54:39;;;;;;;6.43;2.80;;;24.10;58.20;;;;;;5066382;28;20028;-74
2021/09/26 07:57:05;;;;;;;7.10;2.90;;;25.00;56.50;;;;;;5058397;28;20095;-74
2021/09/26 07:59:31;;;;;;;7.70;3.55;;;26.00;55.10;;;;;;5056243;28;20024;-73
2021/09/26 08:01:56;;;;;;;6.93;2.80;;;27.00;53.20;;;;;;5058535;28;20031;-71
2021/09/26 08:04:22;;;;;;;6.15;2.75;;;27.90;51.80;;;;;;5072980;28;20021;-72
2021/09/26 08:06:48;;;;;;;5.93;2.65;;;28.50;50.00;;;;;;5046951;28;20052;-73
2021/09/26 08:09:13;;;;;;;6.07;2.55;;;28.80;48.90;;;;;;5055527;28;20124;-73
2021/09/26 08:11:39;;;;;;;9.45;2.40;;;29.00;48.20;;;;;;5043824;28;20060;-74
2021/09/26 08:14:04;;;;;;;6.60;2.60;;;29.70;47.30;;;;;;5053894;28;20025;-73
2021/09/26 08:16:30;;;;;;;6.18;2.30;;;30.20;45.80;;;;;;5044455;28;20063;-71
2021/09/26 08:18:56;;;;;;;6.43;3.05;;;30.00;44.40;;;;;;5059701;28;20025;-73
2021/09/26 08:21:22;;;;;;;6.18;2.42;;;29.20;44.40;;;;;;5067392;28;20081;-74
2021/09/26 08:23:47;;;;;;;7.30;3.17;;;28.10;44.90;;;;;;5066702;28;20028;-73
2021/09/26 08:26:16;;;;;;;11.57;2.90;;;27.00;45.90;;;;;;5066438;28;20368;-71
2021/09/26 08:28:45;;;;;;;8.10;2.72;;;26.30;47.20;;;;;;5075495;28;20373;-73
2021/09/26 08:31:11;;;;;;;7.57;2.80;;;26.60;48.50;;;;;;5063037;28;20029;-75
2021/09/26 08:33:36;;;;;;;5.97;2.67;;;27.00;47.30;;;;;;5065362;28;20472;-74
2021/09/26 08:36:05;;;;;;;8.68;2.60;;;26.70;47.10;;;;;;5074713;28;20540;-78
2021/09/26 08:38:31;;;;;;;6.38;2.70;;;26.30;47.70;;;;;;5056834;28;20043;-77
2021/09/26 08:40:58;;;;;;;6.47;2.83;;;26.30;48.40;;;;;;5053073;28;20024;-72
2021/09/26 08:43:36;;;;;;;7.50;3.17;;;26.90;48.40;;;;;;5046422;28;20044;-74
2021/09/26 08:46:02;;;;;;;5.97;2.65;;;27.70;47.30;;;;;;5035142;28;20035;-74
2021/09/26 08:48:29;;;;;;;6.00;2.78;;;28.70;46.20;;;;;;5035792;28;20430;-72
2021/09/26 08:50:55;;;;;;;4.63;2.75;;;29.40;45.30;;;;;;5041896;28;20032;-73
2021/09/26 08:53:35;;;;;;;;;;;;;;;;;;;;;
2021/09/26 08:56:08;;;;;;;7.93;2.85;;;29.10;42.80;;;;;;5064174;28;20025;-73
2021/09/26 08:58:36;;;;;;;7.10;2.60;;;28.00;43.10;;;;;;5055859;28;20539;-72
2021/09/26 09:01:02;;;;;;;8.00;2.88;;;27.00;43.90;;;;;;5039708;28;20094;-73
2021/09/26 09:03:28;;;;;;;7.70;2.80;;;26.00;45.10;;;;;;5067140;28;20021;-73
2021/09/26 09:05:55;;;;;;;6.38;3.05;;;25.20;46.30;;;;;;5071270;28;20036;-74
2021/09/26 09:08:24;;;;;;;10.18;3.05;;;24.40;47.70;;;;;;5089988;28;20107;-71
2021/09/26 09:10:56;;;;;;;9.00;3.05;;;23.80;48.90;;;;;;5070411;28;20036;-72
2021/09/26 09:13:28;;;;;;;6.20;3.25;;;23.30;50.10;;;;;;5058011;28;20024;-76
2021/09/26 09:15:59;;;;;;;11.02;3.13;;;23.30;51.60;;;;;;5045572;28;20029;-73
2021/09/26 09:18:34;;;;;;;6.07;2.50;;;24.10;51.70;;;;;;5068529;28;20032;-71
2021/09/26 09:21:00;;;;;;;6.50;2.60;;;24.90;49.40;;;;;;5048655;28;20025;-73
2021/09/26 09:23:31;;;;;;;7.13;2.60;;;25.80;48.40;;;;;;5065881;28;20528;-75
2021/09/26 09:25:56;;;;;;;6.50;2.30;;;26.50;47.10;;;;;;5058615;28;20395;-77
2021/09/26 09:28:28;;;;;;;6.40;2.50;;;27.10;45.70;;;;;;5044312;28;20028;-77
2021/09/26 09:30:56;;;;;;;6.82;2.90;;;27.60;44.80;;;;;;5042993;28;20036;-76
2021/09/26 09:33:33;;;;;;;7.72;2.80;;;27.70;44.10;;;;;;5051702;28;20024;-75
2021/09/26 09:35:59;;;;;;;9.38;2.90;;;27.20;44.10;;;;;;5047868;28;20024;-74
2021/09/26 09:38:33;;;;;;;5.93;2.45;;;26.10;45.00;;;;;;5068434;28;20078;-76
2021/09/26 09:40:59;;;;;;;5.97;2.67;;;25.50;46.50;;;;;;5069196;28;20021;-75
2021/09/26 09:43:29;;;;;;;7.65;2.67;;;25.40;47.00;;;;;;5074990;28;20275;-76
2021/09/26 09:46:01;;;;;;;7.82;2.60;;;25.10;47.50;;;;;;5066196;28;20055;-78
2021/09/26 09:48:30;;;;;;;8.48;2.80;;;25.00;48.50;;;;;;5050792;28;20048;-77
2021/09/26 09:51:00;;;;;;;6.60;2.80;;;25.40;48.20;;;;;;5049009;28;20044;-77
2021/09/26 09:53:41;;;;;;;7.25;3.08;;;25.20;47.90;;;;;;5057190;28;20032;-76
2021/09/26 09:56:17;;;;;;;7.40;2.97;;;24.70;48.00;;;;;;5059355;28;20028;-77
2021/09/26 09:58:45;;;;;;;8.23;2.92;;;24.20;48.60;;;;;;5046839;28;20395;-78
2021/09/26 10:01:17;;;;;;;8.52;3.28;;;24.30;49.10;;;;;;5052518;28;20033;-76
2021/09/26 10:03:51;;;;;;;7.35;2.70;;;24.50;49.60;;;;;;5053128;28;20124;-75
2021/09/26 10:06:25;;;;;;;7.30;2.55;;;25.00;49.00;;;;;;5074766;28;20417;-78
2021/09/26 10:08:53;;;;;;;8.30;2.83;;;25.00;46.90;;;;;;5062780;28;20493;-77
2021/09/26 10:11:19;;;;;;;7.18;2.50;;;24.60;46.20;;;;;;5073537;28;20048;-77
2021/09/26 10:13:45;;;;;;;8.23;2.40;;;24.00;46.90;;;;;;5043501;28;20394;-77
2021/09/26 10:16:11;;;;;;;7.05;2.70;;;23.40;48.30;;;;;;5046836;28;20443;-75
2021/09/26 10:18:38;;;;;;;6.97;2.60;;;22.90;49.30;;;;;;5038669;28;20124;-77
2021/09/26 10:21:06;;;;;;;9.00;2.78;;;22.90;50.10;;;;;;5065453;28;20032;-75
2021/09/26 10:23:33;;;;;;;7.15;2.65;;;22.80;49.80;;;;;;5045188;28;20052;-77
2021/09/26 10:26:00;;;;;;;5.63;2.42;;;23.00;50.10;;;;;;5061628;28;20040;-75
2021/09/26 10:28:30;;;;;;;5.88;2.30;;;23.70;49.10;;;;;;5054021;28;20029;-79
2021/09/26 10:34:20;;;;;;;6.57;2.10;;;25.50;46.70;;;;;;5073010;28;20485;-77
2021/09/26 10:36:48;;;;;;;8.70;2.42;;;26.10;45.70;;;;;;5072917;28;20028;-76
2021/09/26 10:39:15;;;;;;;7.50;2.53;;;26.70;45.30;;;;;;5065633;28;20028;-78
2021/09/26 10:42:09;;;;;;;6.43;2.40;;;26.90;44.60;;;;;;5054087;28;20029;-76
2021/09/26 10:44:55;;;;;;;6.07;2.40;;;26.10;44.60;;;;;;5036748;28;20029;-77
2021/09/26 10:47:23;;;;;;;7.25;2.50;;;25.60;45.00;;;;;;5037449;28;20025;-78
2021/09/26 10:50:12;;;;;;;5.50;2.33;;;25.80;45.10;;;;;;5054270;28;20067;-79
2021/09/26 10:53:02;;;;;;;7.47;2.63;;;26.30;44.70;;;;;;5044526;28;20033;-79
2021/09/26 10:55:31;;;;;;;5.50;2.17;;;26.30;43.80;;;;;;5037444;28;20410;-77
2021/09/26 10:58:00;;;;;;;6.55;2.40;;;26.40;44.30;;;;;;5036841;28;20028;-77
2021/09/26 11:00:35;;;;;;;6.85;2.50;;;26.90;44.60;;;;;;5043740;28;20027;-76
2021/09/26 11:03:15;;;;;;;5.25;2.20;;;27.10;44.60;;;;;;5057013;28;20032;-76
2021/09/26 11:05:48;;;;;;;6.95;2.70;;;27.10;44.50;;;;;;5075276;28;20033;-77
2021/09/26 11:08:26;;;;;;;5.35;2.60;;;27.30;44.20;;;;;;5074267;28;20024;-77
2021/09/26 11:11:01;;;;;;;6.28;2.42;;;27.60;43.90;;;;;;5074143;28;20374;-76
2021/09/26 11:13:31;;;;;;;8.05;2.55;;;27.40;43.60;;;;;;5056092;28;20091;-77
2021/09/26 11:16:08;;;;;;;8.50;3.05;;;26.50;43.90;;;;;;5073586;28;20116;-76
2021/09/26 11:19:10;;;;;;;7.22;2.78;;;26.10;45.50;;;;;;5074091;28;20115;-78
2021/09/26 11:21:37;;;;;;;7.10;2.70;;;26.10;45.20;;;;;;5046070;28;20111;-73
2021/09/26 11:24:10;;;;;;;7.10;2.40;;;26.40;45.70;;;;;;5054979;28;20021;-72
2021/09/26 11:27:03;;;;;;;7.07;2.92;;;26.90;45.40;;;;;;5073546;28;20024;-73
2021/09/26 11:29:50;;;;;;;6.75;2.30;;;27.40;44.50;;;;;;5048084;28;20032;-76
2021/09/26 11:32:16;;;;;;;6.82;2.50;;;27.80;43.80;;;;;;5041931;28;20041;-74
2021/09/26 11:34:51;;;;;;;7.93;2.30;;;28.00;43.00;;;;;;5050422;28;20062;-72
2021/09/26 11:37:38;;;;;;;9.20;3.50;;;28.00;42.20;;;;;;5045618;28;20115;-72
2021/09/26 11:40:12;;;;;;;8.00;2.40;;;27.90;43.00;;;;;;5052951;28;20065;-73
2021/09/26 11:42:43;;;;;;;7.80;2.77;;;28.10;43.00;;;;;;5054951;28;20029;-72
2021/09/26 11:45:12;;;;;;;8.10;2.50;;;28.30;42.60;;;;;;5051671;28;20029;-73
2021/09/26 11:47:37;;;;;;;6.90;2.53;;;28.10;42.30;;;;;;5034292;28;20430;-70
2021/09/26 11:50:08;;;;;;;8.43;2.67;;;27.60;43.10;;;;;;5061259;28;20033;-72
2021/09/26 11:52:43;;;;;;;8.45;2.50;;;26.60;43.70;;;;;;5043860;28;20040;-74
2021/09/26 11:55:12;;;;;;;10.52;2.80;;;25.50;45.10;;;;;;5067235;28;20040;-75
2021/09/26 11:57:38;;;;;;;5.97;2.33;;;24.60;46.20;;;;;;5037255;28;20117;-69
2021/09/26 12:00:05;;;;;;;8.43;2.53;;;24.00;47.10;;;;;;5035381;28;20475;-69
2021/09/26 12:02:34;;;;;;;6.57;2.50;;;23.90;48.20;;;;;;5054982;28;20052;-76
2021/09/26 12:05:03;;;;;;;7.63;2.50;;;24.30;48.80;;;;;;5057398;28;20044;-77
2021/09/26 12:07:31;;;;;;;6.30;2.72;;;24.50;48.20;;;;;;5025097;28;20045;-74
2021/09/26 12:10:00;;;;;;;8.25;2.92;;;24.70;48.30;;;;;;5022019;28;20021;-74
2021/09/26 12:12:29;;;;;;;8.05;2.80;;;24.50;47.20;;;;;;5030991;28;20034;-74
2021/09/26 12:15:07;;;;;;;7.57;2.67;;;24.20;47.20;;;;;;5031835;28;20037;-73
2021/09/26 12:17:40;;;;;;;7.78;2.92;;;23.80;47.80;;;;;;5031831;28;20029;-76
2021/09/26 12:20:11;;;;;;;7.10;2.88;;;23.40;48.50;;;;;;5023877;28;20120;-74
2021/09/26 12:22:37;;;;;;;5.60;2.30;;;22.90;49.50;;;;;;5012259;28;20064;-75
2021/09/26 12:25:11;;;;;;;8.20;2.58;;;22.70;50.20;;;;;;5012229;28;20045;-73
2021/09/26 12:27:49;;;;;;;5.38;2.63;;;22.40;50.30;;;;;;5014536;28;20103;-73
2021/09/26 12:30:23;;;;;;;9.57;3.25;;;22.20;50.70;;;;;;5015944;28;20029;-73
2021/09/26 12:33:04;;;;;;;6.95;2.75;;;21.80;51.20;;;;;;5016042;28;20053;-72
2021/09/26 12:35:48;;;;;;;7.80;2.55;;;21.60;51.90;;;;;;5016644;28;20403;-73
2021/09/26 12:38:29;;;;;;;5.82;2.85;;;21.30;52.20;;;;;;5016339;28;20030;-74
2021/09/26 12:41:06;;;;;;;7.70;2.47;;;21.00;52.90;;;;;;5016588;28;20061;-73
2021/09/26 12:43:36;;;;;;;8.35;2.70;;;20.80;53.60;;;;;;5015898;28;20030;-73
2021/09/26 12:46:08;;;;;;;8.10;3.33;;;20.90;54.20;;;;;;5017186;28;20456;-72
2021/09/26 12:48:36;;;;;;;6.43;2.53;;;21.00;54.20;;;;;;5015945;28;20473;-73
2021/09/26 12:51:10;;;;;;;9.68;2.95;;;21.10;54.00;;;;;;5016678;28;20069;-72
2021/09/26 12:53:41;;;;;;;7.15;2.72;;;21.00;53.50;;;;;;5017054;28;20033;-73
2021/09/26 12:56:08;;;;;;;6.07;2.60;;;21.00;53.50;;;;;;5015870;28;20037;-72
2021/09/26 12:58:45;;;;;;;8.30;2.40;;;20.90;53.30;;;;;;5015556;28;20115;-72
2021/09/26 13:01:30;;;;;;;6.72;2.60;;;20.90;53.60;;;;;;5015666;28;20038;-72